sensor_id;sensor_type;location;lat;lon;timestamp;P1;durP1;ratioP1;P2;durP2;ratioP2
48623;SDS011;75490;45.802;16.114;2024-02-14T00:00:19;41.67;;;22.45;;
48623;SDS011;75490;45.802;16.114;2024-02-14T00:02:47;39.15;;;21.00;;
48623;SDS011;75490;45.802;16.114;2024-02-14T00:05:17;36.83;;;21.48;;
48623;SDS011;75490;45.802;16.114;2024-02-14T00:07:44;36.67;;;21.70;;
48623;SDS011;75490;45.802;16.114;2024-02-14T00:10:11;36.17;;;19.75;;
48623;SDS011;75490;45.802;16.114;2024-02-14T00:12:38;35.42;;;19.27;;
48623;SDS011;75490;45.802;16.114;2024-02-14T00:15:05;31.67;;;16.80;;
48623;SDS011;75490;45.802;16.114;2024-02-14T00:17:33;31.95;;;16.98;;
48623;SDS011;75490;45.802;16.114;2024-02-14T00:20:01;32.97;;;17.25;;
48623;SDS011;75490;45.802;16.114;2024-02-14T00:22:30;25.00;;;13.77;;
48623;SDS011;75490;45.802;16.114;2024-02-14T00:24:57;24.15;;;13.55;;
48623;SDS011;75490;45.802;16.114;2024-02-14T00:27:24;24.10;;;13.85;;
48623;SDS011;75490;45.802;16.114;2024-02-14T00:29:54;24.50;;;14.40;;
48623;SDS011;75490;45.802;16.114;2024-02-14T00:32:21;23.58;;;12.85;;
48623;SDS011;75490;45.802;16.114;2024-02-14T00:34:47;25.33;;;12.57;;
48623;SDS011;75490;45.802;16.114;2024-02-14T00:37:16;28.33;;;16.40;;
48623;SDS011;75490;45.802;16.114;2024-02-14T00:39:43;29.92;;;16.88;;
48623;SDS011;75490;45.802;16.114;2024-02-14T00:42:10;28.58;;;16.90;;
48623;SDS011;75490;45.802;16.114;2024-02-14T00:44:37;29.65;;;16.73;;
48623;SDS011;75490;45.802;16.114;2024-02-14T00:47:04;29.13;;;15.80;;
48623;SDS011;75490;45.802;16.114;2024-02-14T00:49:33;28.02;;;16.52;;
48623;SDS011;75490;45.802;16.114;2024-02-14T00:52:01;31.27;;;15.98;;
48623;SDS011;75490;45.802;16.114;2024-02-14T00:54:27;27.33;;;16.38;;
48623;SDS011;75490;45.802;16.114;2024-02-14T00:56:58;30.63;;;17.30;;
48623;SDS011;75490;45.802;16.114;2024-02-14T00:59:25;29.15;;;17.70;;
48623;SDS011;75490;45.802;16.114;2024-02-14T01:01:52;29.92;;;17.65;;
48623;SDS011;75490;45.802;16.114;2024-02-14T01:04:18;28.10;;;16.98;;
48623;SDS011;75490;45.802;16.114;2024-02-14T01:06:45;27.17;;;15.68;;
48623;SDS011;75490;45.802;16.114;2024-02-14T01:09:12;30.40;;;16.98;;
48623;SDS011;75490;45.802;16.114;2024-02-14T01:11:39;28.38;;;16.38;;
48623;SDS011;75490;45.802;16.114;2024-02-14T01:14:06;27.70;;;16.45;;
48623;SDS011;75490;45.802;16.114;2024-02-14T01:16:33;26.95;;;16.50;;
48623;SDS011;75490;45.802;16.114;2024-02-14T01:19:00;27.48;;;15.65;;
48623;SDS011;75490;45.802;16.114;2024-02-14T01:21:27;29.55;;;16.23;;
48623;SDS011;75490;45.802;16.114;2024-02-14T01:23:54;27.33;;;15.23;;
48623;SDS011;75490;45.802;16.114;2024-02-14T01:26:20;27.15;;;15.52;;
48623;SDS011;75490;45.802;16.114;2024-02-14T01:28:47;33.25;;;17.50;;
48623;SDS011;75490;45.802;16.114;2024-02-14T01:31:14;31.77;;;16.63;;
48623;SDS011;75490;45.802;16.114;2024-02-14T01:33:41;30.10;;;16.35;;
48623;SDS011;75490;45.802;16.114;2024-02-14T01:36:08;33.42;;;16.20;;
48623;SDS011;75490;45.802;16.114;2024-02-14T01:38:35;27.40;;;15.65;;
48623;SDS011;75490;45.802;16.114;2024-02-14T01:41:02;25.92;;;15.40;;
48623;SDS011;75490;45.802;16.114;2024-02-14T01:43:30;25.80;;;15.90;;
48623;SDS011;75490;45.802;16.114;2024-02-14T01:45:58;28.65;;;15.07;;
48623;SDS011;75490;45.802;16.114;2024-02-14T01:48:35;25.08;;;15.32;;
48623;SDS011;75490;45.802;16.114;2024-02-14T01:51:02;29.27;;;15.88;;
48623;SDS011;75490;45.802;16.114;2024-02-14T01:53:31;30.73;;;14.85;;
48623;SDS011;75490;45.802;16.114;2024-02-14T01:55:58;23.90;;;14.13;;
48623;SDS011;75490;45.802;16.114;2024-02-14T01:58:29;29.35;;;14.30;;
48623;SDS011;75490;45.802;16.114;2024-02-14T02:00:56;31.65;;;16.27;;
48623;SDS011;75490;45.802;16.114;2024-02-14T02:03:25;28.05;;;15.70;;
48623;SDS011;75490;45.802;16.114;2024-02-14T02:05:52;29.73;;;14.90;;
48623;SDS011;75490;45.802;16.114;2024-02-14T02:08:20;24.48;;;14.68;;
48623;SDS011;75490;45.802;16.114;2024-02-14T02:10:47;27.88;;;14.18;;
48623;SDS011;75490;45.802;16.114;2024-02-14T02:13:14;26.10;;;14.95;;
48623;SDS011;75490;45.802;16.114;2024-02-14T02:15:42;22.63;;;13.45;;
48623;SDS011;75490;45.802;16.114;2024-02-14T02:18:12;21.27;;;12.73;;
48623;SDS011;75490;45.802;16.114;2024-02-14T02:20:39;21.00;;;13.05;;
48623;SDS011;75490;45.802;16.114;2024-02-14T02:23:10;18.98;;;12.48;;
48623;SDS011;75490;45.802;16.114;2024-02-14T02:25:42;21.23;;;12.27;;
48623;SDS011;75490;45.802;16.114;2024-02-14T02:28:10;21.67;;;12.00;;
48623;SDS011;75490;45.802;16.114;2024-02-14T02:30:36;20.95;;;12.32;;
48623;SDS011;75490;45.802;16.114;2024-02-14T02:33:04;23.15;;;10.60;;
48623;SDS011;75490;45.802;16.114;2024-02-14T02:35:31;20.58;;;10.05;;
48623;SDS011;75490;45.802;16.114;2024-02-14T02:37:58;18.30;;;10.77;;
48623;SDS011;75490;45.802;16.114;2024-02-14T02:40:25;18.90;;;9.65;;
48623;SDS011;75490;45.802;16.114;2024-02-14T02:42:53;18.70;;;9.95;;
48623;SDS011;75490;45.802;16.114;2024-02-14T02:45:21;18.20;;;9.45;;
48623;SDS011;75490;45.802;16.114;2024-02-14T02:47:48;25.55;;;12.50;;
48623;SDS011;75490;45.802;16.114;2024-02-14T02:50:17;23.35;;;13.48;;
48623;SDS011;75490;45.802;16.114;2024-02-14T02:52:45;26.85;;;14.98;;
48623;SDS011;75490;45.802;16.114;2024-02-14T02:55:12;25.52;;;15.63;;
48623;SDS011;75490;45.802;16.114;2024-02-14T02:57:40;25.83;;;13.77;;
48623;SDS011;75490;45.802;16.114;2024-02-14T03:00:07;22.95;;;14.60;;
48623;SDS011;75490;45.802;16.114;2024-02-14T03:02:35;20.90;;;12.48;;
48623;SDS011;75490;45.802;16.114;2024-02-14T03:05:08;23.63;;;13.73;;
48623;SDS011;75490;45.802;16.114;2024-02-14T03:07:36;24.85;;;13.95;;
48623;SDS011;75490;45.802;16.114;2024-02-14T03:10:04;25.50;;;14.10;;
48623;SDS011;75490;45.802;16.114;2024-02-14T03:12:31;25.58;;;15.00;;
48623;SDS011;75490;45.802;16.114;2024-02-14T03:14:59;31.83;;;15.05;;
48623;SDS011;75490;45.802;16.114;2024-02-14T03:17:25;24.67;;;13.73;;
48623;SDS011;75490;45.802;16.114;2024-02-14T03:19:55;25.45;;;12.43;;
48623;SDS011;75490;45.802;16.114;2024-02-14T03:22:23;22.00;;;12.75;;
48623;SDS011;75490;45.802;16.114;2024-02-14T03:24:50;21.77;;;13.48;;
48623;SDS011;75490;45.802;16.114;2024-02-14T03:27:17;19.05;;;10.73;;
48623;SDS011;75490;45.802;16.114;2024-02-14T03:29:44;22.50;;;12.88;;
48623;SDS011;75490;45.802;16.114;2024-02-14T03:32:11;17.80;;;10.32;;
48623;SDS011;75490;45.802;16.114;2024-02-14T03:34:38;21.80;;;12.05;;
48623;SDS011;75490;45.802;16.114;2024-02-14T03:37:05;21.30;;;10.45;;
48623;SDS011;75490;45.802;16.114;2024-02-14T03:39:33;16.17;;;10.20;;
48623;SDS011;75490;45.802;16.114;2024-02-14T03:42:00;19.60;;;10.95;;
48623;SDS011;75490;45.802;16.114;2024-02-14T03:44:29;16.30;;;10.43;;
48623;SDS011;75490;45.802;16.114;2024-02-14T03:46:55;22.45;;;11.55;;
48623;SDS011;75490;45.802;16.114;2024-02-14T03:49:22;19.67;;;11.40;;
48623;SDS011;75490;45.802;16.114;2024-02-14T03:51:49;16.35;;;8.95;;
48623;SDS011;75490;45.802;16.114;2024-02-14T03:54:19;16.95;;;9.15;;
48623;SDS011;75490;45.802;16.114;2024-02-14T03:56:46;19.27;;;9.25;;
48623;SDS011;75490;45.802;16.114;2024-02-14T03:59:13;19.08;;;10.25;;
48623;SDS011;75490;45.802;16.114;2024-02-14T04:01:44;17.58;;;9.23;;
48623;SDS011;75490;45.802;16.114;2024-02-14T04:04:14;17.90;;;9.95;;
48623;SDS011;75490;45.802;16.114;2024-02-14T04:06:41;16.08;;;8.48;;
48623;SDS011;75490;45.802;16.114;2024-02-14T04:09:10;20.40;;;10.80;;
48623;SDS011;75490;45.802;16.114;2024-02-14T04:11:36;18.73;;;10.50;;
48623;SDS011;75490;45.802;16.114;2024-02-14T04:14:03;17.83;;;8.88;;
48623;SDS011;75490;45.802;16.114;2024-02-14T04:16:30;17.63;;;10.05;;
48623;SDS011;75490;45.802;16.114;2024-02-14T04:18:58;20.45;;;11.07;;
48623;SDS011;75490;45.802;16.114;2024-02-14T04:21:25;20.10;;;11.43;;
48623;SDS011;75490;45.802;16.114;2024-02-14T04:23:53;17.85;;;11.32;;
48623;SDS011;75490;45.802;16.114;2024-02-14T04:26:20;21.60;;;11.05;;
48623;SDS011;75490;45.802;16.114;2024-02-14T04:28:47;20.05;;;11.82;;
48623;SDS011;75490;45.802;16.114;2024-02-14T04:31:14;20.38;;;10.80;;
48623;SDS011;75490;45.802;16.114;2024-02-14T04:33:42;18.50;;;10.93;;
48623;SDS011;75490;45.802;16.114;2024-02-14T04:36:09;21.75;;;10.93;;
48623;SDS011;75490;45.802;16.114;2024-02-14T04:38:37;16.25;;;9.38;;
48623;SDS011;75490;45.802;16.114;2024-02-14T04:41:04;19.83;;;10.73;;
48623;SDS011;75490;45.802;16.114;2024-02-14T04:43:31;21.15;;;10.75;;
48623;SDS011;75490;45.802;16.114;2024-02-14T04:45:58;20.60;;;12.05;;
48623;SDS011;75490;45.802;16.114;2024-02-14T04:48:25;24.85;;;12.80;;
48623;SDS011;75490;45.802;16.114;2024-02-14T04:50:52;20.27;;;12.20;;
48623;SDS011;75490;45.802;16.114;2024-02-14T04:53:19;23.63;;;13.88;;
48623;SDS011;75490;45.802;16.114;2024-02-14T04:55:46;20.58;;;12.52;;
48623;SDS011;75490;45.802;16.114;2024-02-14T04:58:13;23.33;;;11.95;;
48623;SDS011;75490;45.802;16.114;2024-02-14T05:00:40;22.92;;;11.48;;
48623;SDS011;75490;45.802;16.114;2024-02-14T05:03:06;21.08;;;11.90;;
48623;SDS011;75490;45.802;16.114;2024-02-14T05:05:34;17.38;;;11.55;;
48623;SDS011;75490;45.802;16.114;2024-02-14T05:08:00;26.77;;;14.00;;
48623;SDS011;75490;45.802;16.114;2024-02-14T05:10:28;26.73;;;13.97;;
48623;SDS011;75490;45.802;16.114;2024-02-14T05:12:55;22.57;;;14.07;;
48623;SDS011;75490;45.802;16.114;2024-02-14T05:15:22;26.45;;;15.45;;
48623;SDS011;75490;45.802;16.114;2024-02-14T05:17:49;25.57;;;14.67;;
48623;SDS011;75490;45.802;16.114;2024-02-14T05:20:16;26.27;;;15.10;;
48623;SDS011;75490;45.802;16.114;2024-02-14T05:22:43;25.15;;;13.77;;
48623;SDS011;75490;45.802;16.114;2024-02-14T05:25:10;26.33;;;14.18;;
48623;SDS011;75490;45.802;16.114;2024-02-14T05:27:37;22.88;;;14.35;;
48623;SDS011;75490;45.802;16.114;2024-02-14T05:30:04;24.43;;;15.40;;
48623;SDS011;75490;45.802;16.114;2024-02-14T05:32:32;26.05;;;15.07;;
48623;SDS011;75490;45.802;16.114;2024-02-14T05:34:59;26.77;;;16.00;;
48623;SDS011;75490;45.802;16.114;2024-02-14T05:37:26;29.47;;;17.17;;
48623;SDS011;75490;45.802;16.114;2024-02-14T05:39:55;26.33;;;17.83;;
48623;SDS011;75490;45.802;16.114;2024-02-14T05:42:22;32.20;;;18.15;;
48623;SDS011;75490;45.802;16.114;2024-02-14T05:44:49;34.80;;;19.55;;
48623;SDS011;75490;45.802;16.114;2024-02-14T05:47:18;32.58;;;19.38;;
48623;SDS011;75490;45.802;16.114;2024-02-14T05:49:45;27.95;;;16.92;;
48623;SDS011;75490;45.802;16.114;2024-02-14T05:52:12;31.77;;;19.25;;
48623;SDS011;75490;45.802;16.114;2024-02-14T05:54:41;33.80;;;19.07;;
48623;SDS011;75490;45.802;16.114;2024-02-14T05:57:09;28.10;;;17.73;;
48623;SDS011;75490;45.802;16.114;2024-02-14T05:59:36;27.73;;;17.80;;
48623;SDS011;75490;45.802;16.114;2024-02-14T06:02:03;33.43;;;19.77;;
48623;SDS011;75490;45.802;16.114;2024-02-14T06:04:32;36.90;;;18.83;;
48623;SDS011;75490;45.802;16.114;2024-02-14T06:06:58;35.80;;;18.88;;
48623;SDS011;75490;45.802;16.114;2024-02-14T06:09:25;33.50;;;18.17;;
48623;SDS011;75490;45.802;16.114;2024-02-14T06:11:52;33.07;;;18.60;;
48623;SDS011;75490;45.802;16.114;2024-02-14T06:14:19;37.10;;;21.30;;
48623;SDS011;75490;45.802;16.114;2024-02-14T06:16:46;39.73;;;20.47;;
48623;SDS011;75490;45.802;16.114;2024-02-14T06:19:13;28.92;;;18.08;;
48623;SDS011;75490;45.802;16.114;2024-02-14T06:21:40;31.90;;;17.53;;
48623;SDS011;75490;45.802;16.114;2024-02-14T06:24:07;29.23;;;17.80;;
48623;SDS011;75490;45.802;16.114;2024-02-14T06:26:33;26.00;;;15.27;;
48623;SDS011;75490;45.802;16.114;2024-02-14T06:29:00;28.50;;;17.13;;
48623;SDS011;75490;45.802;16.114;2024-02-14T06:31:29;28.90;;;17.37;;
48623;SDS011;75490;45.802;16.114;2024-02-14T06:33:55;32.15;;;17.77;;
48623;SDS011;75490;45.802;16.114;2024-02-14T06:36:22;31.67;;;18.00;;
48623;SDS011;75490;45.802;16.114;2024-02-14T06:38:49;29.02;;;17.02;;
48623;SDS011;75490;45.802;16.114;2024-02-14T06:41:17;27.20;;;16.85;;
48623;SDS011;75490;45.802;16.114;2024-02-14T06:43:43;34.70;;;19.17;;
48623;SDS011;75490;45.802;16.114;2024-02-14T06:46:10;30.45;;;18.70;;
48623;SDS011;75490;45.802;16.114;2024-02-14T06:48:37;42.50;;;24.92;;
48623;SDS011;75490;45.802;16.114;2024-02-14T06:51:06;37.15;;;20.25;;
48623;SDS011;75490;45.802;16.114;2024-02-14T06:53:33;40.10;;;22.30;;
48623;SDS011;75490;45.802;16.114;2024-02-14T06:56:00;40.13;;;23.40;;
48623;SDS011;75490;45.802;16.114;2024-02-14T06:58:27;43.17;;;26.05;;
48623;SDS011;75490;45.802;16.114;2024-02-14T07:00:54;40.38;;;25.92;;
48623;SDS011;75490;45.802;16.114;2024-02-14T07:03:24;39.63;;;24.73;;
48623;SDS011;75490;45.802;16.114;2024-02-14T07:05:51;43.38;;;27.67;;
48623;SDS011;75490;45.802;16.114;2024-02-14T07:08:33;91.93;;;53.22;;
48623;SDS011;75490;45.802;16.114;2024-02-14T07:11:00;75.50;;;45.85;;
48623;SDS011;75490;45.802;16.114;2024-02-14T07:13:29;77.50;;;44.47;;
48623;SDS011;75490;45.802;16.114;2024-02-14T07:15:59;73.00;;;42.30;;
48623;SDS011;75490;45.802;16.114;2024-02-14T07:18:26;61.30;;;35.90;;
48623;SDS011;75490;45.802;16.114;2024-02-14T07:20:53;71.45;;;40.67;;
48623;SDS011;75490;45.802;16.114;2024-02-14T07:23:21;57.20;;;35.22;;
48623;SDS011;75490;45.802;16.114;2024-02-14T07:25:48;53.67;;;32.53;;
48623;SDS011;75490;45.802;16.114;2024-02-14T07:28:15;42.45;;;25.13;;
48623;SDS011;75490;45.802;16.114;2024-02-14T07:30:42;39.80;;;24.30;;
48623;SDS011;75490;45.802;16.114;2024-02-14T07:33:08;35.63;;;21.60;;
48623;SDS011;75490;45.802;16.114;2024-02-14T07:35:39;39.10;;;22.95;;
48623;SDS011;75490;45.802;16.114;2024-02-14T07:38:06;49.05;;;30.02;;
48623;SDS011;75490;45.802;16.114;2024-02-14T07:40:33;86.20;;;47.67;;
48623;SDS011;75490;45.802;16.114;2024-02-14T07:43:00;216.40;;;104.45;;
48623;SDS011;75490;45.802;16.114;2024-02-14T07:45:27;177.20;;;89.95;;
48623;SDS011;75490;45.802;16.114;2024-02-14T07:47:54;98.95;;;64.85;;
48623;SDS011;75490;45.802;16.114;2024-02-14T07:50:21;77.18;;;54.70;;
48623;SDS011;75490;45.802;16.114;2024-02-14T07:52:50;42.80;;;27.73;;
48623;SDS011;75490;45.802;16.114;2024-02-14T07:55:17;38.25;;;21.92;;
48623;SDS011;75490;45.802;16.114;2024-02-14T07:57:49;34.53;;;22.83;;
48623;SDS011;75490;45.802;16.114;2024-02-14T08:00:19;32.60;;;20.38;;
48623;SDS011;75490;45.802;16.114;2024-02-14T08:02:49;36.65;;;21.20;;
48623;SDS011;75490;45.802;16.114;2024-02-14T08:05:16;33.55;;;21.45;;
48623;SDS011;75490;45.802;16.114;2024-02-14T08:07:44;32.78;;;19.40;;
48623;SDS011;75490;45.802;16.114;2024-02-14T08:10:12;31.17;;;17.70;;
48623;SDS011;75490;45.802;16.114;2024-02-14T08:12:46;28.48;;;16.05;;
48623;SDS011;75490;45.802;16.114;2024-02-14T08:15:16;25.55;;;15.77;;
48623;SDS011;75490;45.802;16.114;2024-02-14T08:17:43;27.17;;;14.45;;
48623;SDS011;75490;45.802;16.114;2024-02-14T08:20:10;24.77;;;16.27;;
48623;SDS011;75490;45.802;16.114;2024-02-14T08:22:37;26.90;;;19.23;;
48623;SDS011;75490;45.802;16.114;2024-02-14T08:25:04;31.58;;;22.45;;
48623;SDS011;75490;45.802;16.114;2024-02-14T08:27:34;28.88;;;17.42;;
48623;SDS011;75490;45.802;16.114;2024-02-14T08:30:15;26.90;;;15.75;;
48623;SDS011;75490;45.802;16.114;2024-02-14T08:32:48;26.90;;;15.47;;
48623;SDS011;75490;45.802;16.114;2024-02-14T08:35:15;22.60;;;12.73;;
48623;SDS011;75490;45.802;16.114;2024-02-14T08:37:42;21.15;;;12.57;;
48623;SDS011;75490;45.802;16.114;2024-02-14T08:40:15;20.40;;;13.00;;
48623;SDS011;75490;45.802;16.114;2024-02-14T08:42:42;23.83;;;13.68;;
48623;SDS011;75490;45.802;16.114;2024-02-14T08:45:09;24.80;;;15.32;;
48623;SDS011;75490;45.802;16.114;2024-02-14T08:47:36;34.47;;;23.13;;
48623;SDS011;75490;45.802;16.114;2024-02-14T08:50:04;25.45;;;16.80;;
48623;SDS011;75490;45.802;16.114;2024-02-14T08:52:31;24.20;;;13.90;;
48623;SDS011;75490;45.802;16.114;2024-02-14T08:54:59;21.17;;;13.52;;
48623;SDS011;75490;45.802;16.114;2024-02-14T08:57:25;24.77;;;14.98;;
48623;SDS011;75490;45.802;16.114;2024-02-14T08:59:52;21.20;;;13.95;;
48623;SDS011;75490;45.802;16.114;2024-02-14T09:02:19;23.70;;;14.45;;
48623;SDS011;75490;45.802;16.114;2024-02-14T09:04:49;22.20;;;13.23;;
48623;SDS011;75490;45.802;16.114;2024-02-14T09:07:17;25.67;;;14.80;;
48623;SDS011;75490;45.802;16.114;2024-02-14T09:09:44;27.58;;;15.60;;
48623;SDS011;75490;45.802;16.114;2024-02-14T09:12:13;24.52;;;15.25;;
48623;SDS011;75490;45.802;16.114;2024-02-14T09:14:41;26.20;;;14.80;;
48623;SDS011;75490;45.802;16.114;2024-02-14T09:17:08;21.73;;;14.52;;
48623;SDS011;75490;45.802;16.114;2024-02-14T09:19:34;20.02;;;12.98;;
48623;SDS011;75490;45.802;16.114;2024-02-14T09:22:03;20.38;;;10.25;;
48623;SDS011;75490;45.802;16.114;2024-02-14T09:24:33;18.90;;;11.55;;
48623;SDS011;75490;45.802;16.114;2024-02-14T09:27:00;18.35;;;10.57;;
48623;SDS011;75490;45.802;16.114;2024-02-14T09:29:28;18.67;;;10.80;;
48623;SDS011;75490;45.802;16.114;2024-02-14T09:31:57;17.30;;;10.20;;
48623;SDS011;75490;45.802;16.114;2024-02-14T09:34:36;15.73;;;10.55;;
48623;SDS011;75490;45.802;16.114;2024-02-14T09:37:03;20.00;;;11.40;;
48623;SDS011;75490;45.802;16.114;2024-02-14T09:39:32;16.42;;;9.52;;
48623;SDS011;75490;45.802;16.114;2024-02-14T09:42:08;16.40;;;9.73;;
48623;SDS011;75490;45.802;16.114;2024-02-14T09:44:37;15.65;;;9.23;;
48623;SDS011;75490;45.802;16.114;2024-02-14T09:47:06;14.20;;;8.50;;
48623;SDS011;75490;45.802;16.114;2024-02-14T09:49:35;18.05;;;9.32;;
48623;SDS011;75490;45.802;16.114;2024-02-14T09:52:05;12.18;;;8.65;;
48623;SDS011;75490;45.802;16.114;2024-02-14T09:54:38;12.18;;;8.10;;
48623;SDS011;75490;45.802;16.114;2024-02-14T09:57:05;17.08;;;9.52;;
48623;SDS011;75490;45.802;16.114;2024-02-14T09:59:32;12.65;;;8.13;;
48623;SDS011;75490;45.802;16.114;2024-02-14T10:02:01;14.25;;;7.97;;
48623;SDS011;75490;45.802;16.114;2024-02-14T10:04:28;14.30;;;9.02;;
48623;SDS011;75490;45.802;16.114;2024-02-14T10:06:55;15.35;;;8.55;;
48623;SDS011;75490;45.802;16.114;2024-02-14T10:09:30;13.75;;;7.38;;
48623;SDS011;75490;45.802;16.114;2024-02-14T10:11:57;13.30;;;7.38;;
48623;SDS011;75490;45.802;16.114;2024-02-14T10:14:24;15.38;;;7.05;;
48623;SDS011;75490;45.802;16.114;2024-02-14T10:16:54;14.68;;;6.60;;
48623;SDS011;75490;45.802;16.114;2024-02-14T10:19:21;12.20;;;6.53;;
48623;SDS011;75490;45.802;16.114;2024-02-14T10:22:00;11.10;;;6.05;;
48623;SDS011;75490;45.802;16.114;2024-02-14T10:24:32;12.38;;;6.30;;
48623;SDS011;75490;45.802;16.114;2024-02-14T10:27:11;9.13;;;5.55;;
48623;SDS011;75490;45.802;16.114;2024-02-14T10:30:09;11.13;;;5.55;;
48623;SDS011;75490;45.802;16.114;2024-02-14T10:32:52;9.43;;;4.00;;
48623;SDS011;75490;45.802;16.114;2024-02-14T10:35:42;6.20;;;3.20;;
48623;SDS011;75490;45.802;16.114;2024-02-14T10:38:11;8.05;;;4.30;;
48623;SDS011;75490;45.802;16.114;2024-02-14T10:40:41;10.00;;;4.65;;
48623;SDS011;75490;45.802;16.114;2024-02-14T10:43:09;10.55;;;6.20;;
48623;SDS011;75490;45.802;16.114;2024-02-14T10:45:48;14.00;;;7.07;;
48623;SDS011;75490;45.802;16.114;2024-02-14T10:48:28;9.93;;;4.47;;
48623;SDS011;75490;45.802;16.114;2024-02-14T10:51:34;8.63;;;3.33;;
48623;SDS011;75490;45.802;16.114;2024-02-14T10:54:38;7.38;;;3.40;;
48623;SDS011;75490;45.802;16.114;2024-02-14T10:57:43;8.15;;;3.22;;
48623;SDS011;75490;45.802;16.114;2024-02-14T11:00:30;9.98;;;4.47;;
48623;SDS011;75490;45.802;16.114;2024-02-14T11:03:16;8.10;;;3.45;;
48623;SDS011;75490;45.802;16.114;2024-02-14T11:06:01;7.30;;;3.03;;
48623;SDS011;75490;45.802;16.114;2024-02-14T11:08:31;9.32;;;3.80;;
48623;SDS011;75490;45.802;16.114;2024-02-14T11:11:08;6.63;;;2.63;;
48623;SDS011;75490;45.802;16.114;2024-02-14T11:13:41;5.18;;;2.90;;
48623;SDS011;75490;45.802;16.114;2024-02-14T11:16:34;5.00;;;2.47;;
48623;SDS011;75490;45.802;16.114;2024-02-14T11:19:11;6.03;;;2.97;;
48623;SDS011;75490;45.802;16.114;2024-02-14T11:21:46;5.80;;;2.03;;
48623;SDS011;75490;45.802;16.114;2024-02-14T11:24:45;5.28;;;2.58;;
48623;SDS011;75490;45.802;16.114;2024-02-14T11:27:13;6.40;;;2.92;;
48623;SDS011;75490;45.802;16.114;2024-02-14T11:29:55;6.93;;;2.40;;
48623;SDS011;75490;45.802;16.114;2024-02-14T11:32:22;7.97;;;2.80;;
48623;SDS011;75490;45.802;16.114;2024-02-14T11:34:55;5.60;;;3.05;;
48623;SDS011;75490;45.802;16.114;2024-02-14T11:37:31;7.80;;;3.00;;
48623;SDS011;75490;45.802;16.114;2024-02-14T11:40:14;5.55;;;2.45;;
48623;SDS011;75490;45.802;16.114;2024-02-14T11:42:41;5.65;;;2.83;;
48623;SDS011;75490;45.802;16.114;2024-02-14T11:45:41;6.47;;;2.58;;
48623;SDS011;75490;45.802;16.114;2024-02-14T11:48:13;5.22;;;2.42;;
48623;SDS011;75490;45.802;16.114;2024-02-14T11:50:44;5.93;;;2.40;;
48623;SDS011;75490;45.802;16.114;2024-02-14T11:53:14;7.97;;;2.97;;
48623;SDS011;75490;45.802;16.114;2024-02-14T11:55:45;5.65;;;2.35;;
48623;SDS011;75490;45.802;16.114;2024-02-14T11:58:16;9.25;;;3.22;;
48623;SDS011;75490;45.802;16.114;2024-02-14T12:01:05;7.10;;;2.55;;
48623;SDS011;75490;45.802;16.114;2024-02-14T12:03:32;21.20;;;11.63;;
48623;SDS011;75490;45.802;16.114;2024-02-14T12:06:01;8.95;;;3.75;;
48623;SDS011;75490;45.802;16.114;2024-02-14T12:08:31;5.13;;;2.30;;
48623;SDS011;75490;45.802;16.114;2024-02-14T12:10:58;6.13;;;2.22;;
48623;SDS011;75490;45.802;16.114;2024-02-14T12:13:25;6.32;;;2.47;;
48623;SDS011;75490;45.802;16.114;2024-02-14T12:15:52;4.93;;;1.88;;
48623;SDS011;75490;45.802;16.114;2024-02-14T12:18:20;8.88;;;2.53;;
48623;SDS011;75490;45.802;16.114;2024-02-14T12:20:47;6.50;;;2.33;;
48623;SDS011;75490;45.802;16.114;2024-02-14T12:23:18;5.53;;;2.20;;
48623;SDS011;75490;45.802;16.114;2024-02-14T12:25:46;4.35;;;2.00;;
48623;SDS011;75490;45.802;16.114;2024-02-14T12:28:17;6.22;;;2.17;;
48623;SDS011;75490;45.802;16.114;2024-02-14T12:30:45;5.75;;;2.35;;
48623;SDS011;75490;45.802;16.114;2024-02-14T12:33:15;4.93;;;2.30;;
48623;SDS011;75490;45.802;16.114;2024-02-14T12:35:45;4.28;;;2.00;;
48623;SDS011;75490;45.802;16.114;2024-02-14T12:38:16;4.63;;;1.95;;
48623;SDS011;75490;45.802;16.114;2024-02-14T12:40:51;6.05;;;2.55;;
48623;SDS011;75490;45.802;16.114;2024-02-14T12:43:44;4.57;;;1.95;;
48623;SDS011;75490;45.802;16.114;2024-02-14T12:46:12;4.82;;;1.50;;
48623;SDS011;75490;45.802;16.114;2024-02-14T12:48:38;4.15;;;1.42;;
48623;SDS011;75490;45.802;16.114;2024-02-14T12:51:08;5.47;;;1.80;;
48623;SDS011;75490;45.802;16.114;2024-02-14T12:53:36;9.25;;;2.83;;
48623;SDS011;75490;45.802;16.114;2024-02-14T12:56:03;7.25;;;2.38;;
48623;SDS011;75490;45.802;16.114;2024-02-14T12:58:31;6.50;;;2.70;;
48623;SDS011;75490;45.802;16.114;2024-02-14T13:00:59;8.98;;;2.45;;
48623;SDS011;75490;45.802;16.114;2024-02-14T13:03:27;6.38;;;2.85;;
48623;SDS011;75490;45.802;16.114;2024-02-14T13:06:01;7.57;;;2.47;;
48623;SDS011;75490;45.802;16.114;2024-02-14T13:08:27;6.45;;;3.28;;
48623;SDS011;75490;45.802;16.114;2024-02-14T13:10:54;5.82;;;2.65;;
48623;SDS011;75490;45.802;16.114;2024-02-14T13:13:27;8.40;;;2.83;;
48623;SDS011;75490;45.802;16.114;2024-02-14T13:15:56;5.50;;;3.10;;
48623;SDS011;75490;45.802;16.114;2024-02-14T13:18:27;5.70;;;2.05;;
48623;SDS011;75490;45.802;16.114;2024-02-14T13:20:53;7.15;;;2.92;;
48623;SDS011;75490;45.802;16.114;2024-02-14T13:23:25;4.13;;;1.77;;
48623;SDS011;75490;45.802;16.114;2024-02-14T13:25:54;5.90;;;2.65;;
48623;SDS011;75490;45.802;16.114;2024-02-14T13:28:22;11.43;;;6.50;;
48623;SDS011;75490;45.802;16.114;2024-02-14T13:30:48;9.20;;;4.45;;
48623;SDS011;75490;45.802;16.114;2024-02-14T13:33:16;19.00;;;8.75;;
48623;SDS011;75490;45.802;16.114;2024-02-14T13:35:42;11.95;;;3.58;;
48623;SDS011;75490;45.802;16.114;2024-02-14T13:38:10;4.97;;;2.25;;
48623;SDS011;75490;45.802;16.114;2024-02-14T13:40:37;5.63;;;2.03;;
48623;SDS011;75490;45.802;16.114;2024-02-14T13:43:03;6.15;;;2.13;;
48623;SDS011;75490;45.802;16.114;2024-02-14T13:45:39;5.80;;;1.80;;
48623;SDS011;75490;45.802;16.114;2024-02-14T13:48:09;4.45;;;1.80;;
48623;SDS011;75490;45.802;16.114;2024-02-14T13:50:36;5.40;;;1.73;;
48623;SDS011;75490;45.802;16.114;2024-02-14T13:53:05;5.90;;;2.47;;
48623;SDS011;75490;45.802;16.114;2024-02-14T13:55:35;4.65;;;1.98;;
48623;SDS011;75490;45.802;16.114;2024-02-14T13:58:02;4.18;;;1.88;;
48623;SDS011;75490;45.802;16.114;2024-02-14T14:00:29;6.13;;;2.38;;
48623;SDS011;75490;45.802;16.114;2024-02-14T14:02:56;4.72;;;1.63;;
48623;SDS011;75490;45.802;16.114;2024-02-14T14:05:23;3.28;;;1.40;;
48623;SDS011;75490;45.802;16.114;2024-02-14T14:07:56;4.88;;;1.52;;
48623;SDS011;75490;45.802;16.114;2024-02-14T14:10:25;4.13;;;1.80;;
48623;SDS011;75490;45.802;16.114;2024-02-14T14:12:55;4.97;;;1.70;;
48623;SDS011;75490;45.802;16.114;2024-02-14T14:15:24;5.30;;;2.25;;
48623;SDS011;75490;45.802;16.114;2024-02-14T14:17:55;3.55;;;1.52;;
48623;SDS011;75490;45.802;16.114;2024-02-14T14:20:29;4.00;;;1.67;;
48623;SDS011;75490;45.802;16.114;2024-02-14T14:23:32;4.72;;;2.35;;
48623;SDS011;75490;45.802;16.114;2024-02-14T14:25:59;4.60;;;1.80;;
48623;SDS011;75490;45.802;16.114;2024-02-14T14:28:29;5.32;;;1.73;;